createdAt,value
2023-04-01T00:00:50.908Z,48.37
2023-04-01T00:03:20.579Z,47.81
2023-04-01T00:05:49.234Z,48.25
2023-04-01T00:08:18.375Z,47.82
2023-04-01T00:10:46.435Z,48.08
2023-04-01T00:13:14.368Z,48.10
2023-04-01T00:15:42.456Z,48.55
2023-04-01T00:18:10.385Z,48.03
2023-04-01T00:20:39.749Z,48.15
2023-04-01T00:23:07.648Z,48.25
2023-04-01T00:25:35.663Z,48.14
2023-04-01T00:28:03.526Z,48.63
2023-04-01T00:30:31.397Z,48.50
2023-04-01T00:32:59.510Z,48.68
2023-04-01T00:35:27.560Z,48.52
2023-04-01T00:37:57.080Z,48.13
2023-04-01T00:40:28.516Z,48.28
2023-04-01T00:42:56.434Z,48.15
2023-04-01T00:45:36.994Z,48.46
2023-04-01T00:48:09.462Z,48.33
2023-04-01T00:50:39.172Z,48.17
2023-04-01T00:53:09.526Z,48.46
2023-04-01T00:55:41.848Z,48.12
2023-04-01T00:58:13.389Z,48.25
2023-04-01T01:00:46.007Z,48.09
2023-04-01T01:03:41.195Z,48.20
2023-04-01T01:06:30.113Z,48.78
2023-04-01T01:09:14.593Z,48.40
2023-04-01T01:11:45.334Z,48.17
2023-04-01T01:14:27.196Z,48.47
2023-04-01T01:17:01.003Z,48.39
2023-04-01T01:19:51.215Z,48.87
2023-04-01T01:22:34.407Z,48.94
2023-04-01T01:25:18.380Z,48.52
2023-04-01T01:27:56.689Z,48.85
2023-04-01T01:30:44.165Z,48.87
2023-04-01T01:33:26.403Z,48.79
2023-04-01T01:35:57.474Z,48.90
2023-04-01T01:38:29.557Z,48.64
2023-04-01T01:41:04.743Z,49.00
2023-04-01T01:43:36.082Z,49.02
2023-04-01T01:46:08.765Z,49.17
2023-04-01T01:48:38.128Z,48.53
2023-04-01T01:51:08.385Z,48.62
2023-04-01T01:53:36.692Z,48.50
2023-04-01T01:56:05.482Z,49.02
2023-04-01T01:58:42.361Z,49.03
2023-04-01T02:01:15.524Z,48.65
2023-04-01T02:03:46.505Z,48.78
2023-04-01T02:06:19.208Z,48.88
2023-04-01T02:08:52.840Z,49.18
2023-04-01T02:11:26.799Z,48.66
2023-04-01T02:13:58.320Z,49.13
2023-04-01T02:16:31.608Z,49.14
2023-04-01T02:19:03.641Z,48.71
2023-04-01T02:21:36.600Z,49.36
2023-04-01T02:24:32.941Z,49.17
2023-04-01T02:27:06.302Z,49.23
2023-04-01T02:29:45.160Z,49.07
2023-04-01T02:32:22.180Z,49.57
2023-04-01T02:34:53.402Z,48.95
2023-04-01T02:37:32.827Z,49.02
2023-04-01T02:40:17.800Z,49.40
2023-04-01T02:42:47.970Z,49.49
2023-04-01T02:45:16.689Z,49.52
2023-04-01T02:47:49.205Z,49.25
2023-04-01T02:50:19.068Z,49.39
2023-04-01T02:52:50.223Z,49.48
2023-04-01T02:55:45.322Z,49.60
2023-04-01T02:58:17.816Z,49.30
2023-04-01T03:00:46.192Z,49.38
2023-04-01T03:03:15.161Z,49.10
2023-04-01T03:05:43.537Z,49.53
2023-04-01T03:08:12.917Z,49.11
2023-04-01T03:10:41.001Z,49.04
2023-04-01T03:13:09.223Z,49.50
2023-04-01T03:15:37.177Z,49.24
2023-04-01T03:18:05.256Z,49.67
2023-04-01T03:20:33.926Z,49.25
2023-04-01T03:23:01.905Z,49.62
2023-04-01T03:25:34.790Z,49.60
2023-04-01T03:28:03.515Z,49.98
2023-04-01T03:30:32.398Z,49.76
2023-04-01T03:33:01.663Z,49.48
2023-04-01T03:35:29.948Z,49.42
2023-04-01T03:37:58.073Z,49.54
2023-04-01T03:40:27.163Z,50.05
2023-04-01T03:42:57.224Z,49.55
2023-04-01T03:45:25.328Z,49.60
2023-04-01T03:47:53.450Z,49.81
2023-04-01T03:50:21.810Z,49.98
2023-04-01T03:52:49.701Z,49.62
2023-04-01T03:55:19.050Z,49.70
2023-04-01T03:57:48.119Z,49.84
2023-04-01T04:00:21.769Z,50.21
2023-04-01T04:02:56.227Z,50.05
2023-04-01T04:05:29.893Z,50.06
2023-04-01T04:07:57.739Z,49.94
2023-04-01T04:10:26.062Z,50.35
2023-04-01T04:12:54.531Z,50.21
2023-04-01T04:15:25.562Z,50.04
2023-04-01T04:17:53.763Z,49.88
2023-04-01T04:20:21.752Z,50.50
2023-04-01T04:22:51.281Z,50.40
2023-04-01T04:25:19.400Z,50.33
2023-04-01T04:27:47.406Z,50.31
2023-04-01T04:30:17.019Z,50.13
2023-04-01T04:32:46.310Z,50.52
2023-04-01T04:35:14.748Z,50.65
2023-04-01T04:37:42.860Z,50.22
2023-04-01T04:40:12.697Z,50.57
2023-04-01T04:42:41.056Z,50.63
2023-04-01T04:45:14.761Z,50.28
2023-04-01T04:47:52.017Z,50.80
2023-04-01T04:50:20.185Z,50.60
2023-04-01T04:52:48.179Z,50.72
2023-04-01T04:55:16.684Z,50.44
2023-04-01T04:57:47.939Z,50.95
2023-04-01T05:00:16.255Z,50.36
2023-04-01T05:03:03.790Z,50.53
2023-04-01T05:05:33.724Z,50.80
2023-04-01T05:08:03.959Z,50.52
2023-04-01T05:10:32.458Z,50.83
2023-04-01T05:13:01.111Z,51.10
2023-04-01T05:15:30.383Z,51.08
2023-04-01T05:18:00.409Z,50.75
2023-04-01T05:20:29.998Z,50.66
2023-04-01T05:22:59.133Z,50.78
2023-04-01T05:25:28.031Z,51.08
2023-04-01T05:27:56.271Z,50.73
2023-04-01T05:30:24.440Z,50.63
2023-04-01T05:33:19.350Z,50.67
2023-04-01T05:35:48.791Z,51.24
2023-04-01T05:38:19.002Z,50.94
2023-04-01T05:40:46.930Z,51.04
2023-04-01T05:43:15.090Z,50.81
2023-04-01T05:45:44.857Z,51.35
2023-04-01T05:48:16.427Z,51.15
2023-04-01T05:50:45.250Z,51.02
2023-04-01T05:53:14.706Z,51.12
2023-04-01T05:55:44.823Z,51.76
2023-04-01T05:58:12.612Z,51.82
2023-04-01T06:00:43.244Z,51.22
2023-04-01T06:03:11.614Z,51.37
2023-04-01T06:05:42.099Z,51.51
2023-04-01T06:08:17.588Z,51.62
2023-04-01T06:11:01.523Z,52.19
2023-04-01T06:13:44.246Z,51.93
2023-04-01T06:16:24.775Z,52.17
2023-04-01T06:19:09.349Z,52.59
2023-04-01T06:22:08.476Z,52.32
2023-04-01T06:24:50.321Z,52.27
2023-04-01T06:27:28.879Z,52.33
2023-04-01T06:30:08.141Z,52.46
2023-04-01T06:33:00.741Z,52.81
2023-04-01T06:35:44.361Z,52.62
2023-04-01T06:38:32.374Z,52.41
2023-04-01T06:41:44.314Z,52.86
2023-04-01T06:44:20.460Z,52.20
2023-04-01T06:47:30.019Z,52.57
2023-04-01T06:50:31.024Z,52.41
2023-04-01T06:53:21.007Z,52.73
2023-04-01T06:56:11.140Z,52.09
2023-04-01T06:58:55.915Z,52.20
2023-04-01T07:01:31.049Z,52.68
2023-04-01T07:04:04.685Z,52.45
2023-04-01T07:06:37.515Z,52.41
2023-04-01T07:09:11.308Z,52.06
2023-04-01T07:12:20.712Z,52.91
2023-04-01T07:15:19.115Z,53.02
2023-04-01T07:17:52.424Z,52.32
2023-04-01T07:20:27.615Z,52.62
2023-04-01T07:23:00.475Z,52.42
2023-04-01T07:25:40.457Z,52.63
2023-04-01T07:28:59.835Z,52.24
2023-04-01T07:31:51.653Z,52.71
2023-04-01T07:34:27.317Z,52.96
2023-04-01T07:37:02.519Z,52.45
2023-04-01T07:39:42.392Z,53.36
2023-04-01T07:42:27.358Z,52.82
2023-04-01T07:45:05.502Z,53.37
2023-04-01T07:47:47.994Z,53.04
2023-04-01T07:50:24.206Z,53.00
2023-04-01T07:53:03.100Z,53.10
2023-04-01T07:55:39.264Z,52.87
2023-04-01T07:58:16.477Z,53.52
2023-04-01T08:00:53.386Z,53.21
2023-04-01T08:03:38.878Z,53.20
2023-04-01T08:06:21.728Z,53.28
2023-04-01T08:09:03.343Z,53.39
2023-04-01T08:11:49.307Z,53.27
2023-04-01T08:14:48.401Z,53.25
2023-04-01T08:17:42.635Z,53.59
2023-04-01T08:20:26.117Z,53.76
2023-04-01T08:23:02.782Z,53.87
2023-04-01T08:25:41.842Z,53.75
2023-04-01T08:28:18.234Z,54.01
2023-04-01T08:30:51.552Z,53.61
2023-04-01T08:33:24.427Z,53.31
2023-04-01T08:36:01.253Z,53.64
2023-04-01T08:38:34.910Z,53.34
2023-04-01T08:41:16.302Z,53.72
2023-04-01T08:44:54.439Z,54.49
2023-04-01T08:47:31.392Z,54.14
2023-04-01T08:50:33.892Z,54.54
2023-04-01T08:53:23.174Z,53.58
2023-04-01T08:56:07.412Z,53.92
2023-04-01T08:58:56.549Z,54.17
2023-04-01T09:01:57.818Z,53.83
2023-04-01T09:05:32.430Z,54.70
2023-04-01T09:08:13.989Z,54.40
2023-04-01T09:11:08.968Z,54.77
2023-04-01T09:14:30.930Z,54.90
2023-04-01T09:17:31.998Z,54.20
2023-04-01T09:20:18.828Z,54.47
2023-04-01T09:22:56.109Z,54.59
2023-04-01T09:25:48.379Z,54.20
2023-04-01T09:28:22.382Z,54.01
2023-04-01T09:31:18.298Z,54.43
2023-04-01T09:34:30.307Z,53.78
2023-04-01T09:37:22.537Z,54.21
2023-04-01T09:40:11.352Z,54.65
2023-04-01T09:42:52.093Z,54.49
2023-04-01T09:45:39.332Z,53.98
2023-04-01T09:48:22.298Z,54.55
2023-04-01T09:51:07.367Z,54.36
2023-04-01T09:53:54.085Z,54.47
2023-04-01T09:56:51.789Z,54.71
2023-04-01T10:00:08.350Z,54.20
2023-04-01T10:03:31.286Z,54.16
2023-04-01T10:06:57.021Z,54.67
2023-04-01T10:10:05.242Z,54.05
2023-04-01T10:13:39.267Z,54.26
2023-04-01T10:16:45.031Z,54.45
2023-04-01T10:19:37.754Z,53.66
2023-04-01T10:22:25.001Z,53.72
2023-04-01T10:25:30.271Z,53.70
2023-04-01T10:28:52.679Z,54.24
2023-04-01T10:32:21.546Z,53.99
2023-04-01T10:35:25.035Z,53.76
2023-04-01T10:38:14.912Z,54.34
2023-04-01T10:41:16.478Z,53.89
2023-04-01T10:44:57.587Z,54.38
2023-04-01T10:48:03.876Z,54.56
2023-04-01T10:51:02.803Z,54.37
2023-04-01T10:53:44.202Z,54.44
2023-04-01T10:56:56.718Z,54.28
2023-04-01T11:00:34.558Z,54.49
2023-04-01T11:04:14.763Z,54.41
2023-04-01T11:08:05.243Z,54.97
2023-04-01T11:11:18.551Z,55.15
2023-04-01T11:14:16.064Z,54.71
2023-04-01T11:17:20.844Z,55.22
2023-04-01T11:20:13.258Z,54.53
2023-04-01T11:23:00.657Z,54.73
2023-04-01T11:25:51.961Z,54.78
2023-04-01T11:29:01.477Z,54.61
2023-04-01T11:31:50.127Z,55.23
2023-04-01T11:34:46.567Z,55.13
2023-04-01T11:37:27.736Z,55.06
2023-04-01T11:40:30.118Z,54.53
2023-04-01T11:43:34.953Z,55.13
2023-04-01T11:46:29.526Z,54.59
2023-04-01T11:49:08.804Z,54.82
2023-04-01T11:51:57.558Z,54.86
2023-04-01T11:54:37.808Z,55.07
2023-04-01T11:57:41.313Z,55.17
2023-04-01T12:00:43.531Z,55.18
2023-04-01T12:03:28.658Z,55.04
2023-04-01T12:06:04.221Z,55.12
2023-04-01T12:08:42.254Z,55.07
2023-04-01T12:11:19.880Z,54.84
2023-04-01T12:13:55.858Z,54.47
2023-04-01T12:16:37.002Z,55.09
2023-04-01T12:19:17.209Z,55.14
2023-04-01T12:22:00.824Z,54.99
2023-04-01T12:24:44.898Z,55.67
2023-04-01T12:27:41.636Z,55.02
2023-04-01T12:30:28.941Z,55.31
2023-04-01T12:33:12.832Z,54.85
2023-04-01T12:35:57.454Z,55.25
2023-04-01T12:38:37.376Z,55.16
2023-04-01T12:41:11.389Z,54.71
2023-04-01T12:44:15.434Z,55.14
2023-04-01T12:47:02.680Z,55.33
2023-04-01T12:49:45.778Z,55.12
2023-04-01T12:52:14.060Z,55.81
2023-04-01T12:55:00.650Z,55.36
2023-04-01T12:57:50.794Z,55.14
2023-04-01T13:00:33.358Z,55.11
2023-04-01T13:03:15.374Z,55.41
2023-04-01T13:06:13.341Z,55.79
2023-04-01T13:08:50.772Z,55.43
2023-04-01T13:11:27.032Z,55.13
2023-04-01T13:14:31.458Z,55.67
2023-04-01T13:17:09.412Z,54.77
2023-04-01T13:19:57.916Z,54.81
2023-04-01T13:22:44.940Z,55.12
2023-04-01T13:25:25.729Z,55.13
2023-04-01T13:28:00.827Z,55.42
2023-04-01T13:30:32.809Z,55.23
2023-04-01T13:33:06.795Z,55.16
2023-04-01T13:35:44.451Z,54.88
2023-04-01T13:38:32.225Z,55.35
2023-04-01T13:41:08.003Z,54.55
2023-04-01T13:43:41.371Z,55.08
2023-04-01T13:46:29.846Z,54.97
2023-04-01T13:49:20.945Z,55.27
2023-04-01T13:52:27.415Z,54.71
2023-04-01T13:55:24.238Z,54.80
2023-04-01T13:58:19.090Z,54.82
2023-04-01T14:00:58.528Z,55.04
2023-04-01T14:03:34.490Z,55.00
2023-04-01T14:06:18.213Z,54.40
2023-04-01T14:09:06.244Z,54.54
2023-04-01T14:11:41.497Z,54.33
2023-04-01T14:14:20.686Z,54.52
2023-04-01T14:17:12.440Z,54.80
2023-04-01T14:20:11.137Z,55.06
2023-04-01T14:22:44.962Z,54.85
2023-04-01T14:25:43.553Z,54.59
2023-04-01T14:28:21.459Z,55.01
2023-04-01T14:31:20.319Z,55.22
2023-04-01T14:33:59.672Z,54.74
2023-04-01T14:36:44.025Z,54.47
2023-04-01T14:39:46.576Z,54.80
2023-04-01T14:42:27.004Z,54.28
2023-04-01T14:45:07.081Z,54.47
2023-04-01T14:47:46.240Z,54.22
2023-04-01T14:50:18.768Z,54.77
2023-04-01T14:52:51.303Z,54.40
2023-04-01T14:55:30.410Z,54.86
2023-04-01T14:58:12.029Z,54.58
2023-04-01T15:00:50.990Z,54.29
2023-04-01T15:03:25.237Z,54.48
2023-04-01T15:06:03.093Z,54.36
2023-04-01T15:08:34.914Z,54.18
2023-04-01T15:11:27.249Z,54.15
2023-04-01T15:14:21.714Z,54.40
2023-04-01T15:17:02.545Z,54.26
2023-04-01T15:19:44.570Z,54.59
2023-04-01T15:22:40.587Z,54.42
2023-04-01T15:25:26.049Z,54.56
2023-04-01T15:28:05.050Z,54.56
2023-04-01T15:30:37.838Z,54.08
2023-04-01T15:33:32.000Z,54.25
2023-04-01T15:36:15.322Z,54.18
2023-04-01T15:38:51.355Z,54.70
2023-04-01T15:41:26.865Z,53.99
2023-04-01T15:43:54.826Z,54.26
2023-04-01T15:46:38.082Z,54.32
2023-04-01T15:49:23.694Z,54.69
2023-04-01T15:52:00.562Z,54.47
2023-04-01T15:55:03.171Z,54.35
2023-04-01T15:57:40.536Z,54.74
2023-04-01T16:00:16.097Z,54.79
2023-04-01T16:02:52.142Z,54.42
2023-04-01T16:05:36.528Z,54.53
2023-04-01T16:08:18.641Z,54.25
2023-04-01T16:11:04.856Z,54.94
2023-04-01T16:13:52.436Z,54.88
2023-04-01T16:16:31.400Z,54.39
2023-04-01T16:19:26.535Z,54.84
2023-04-01T16:22:01.846Z,53.95
2023-04-01T16:24:36.817Z,54.32
2023-04-01T16:27:13.678Z,54.75
2023-04-01T16:29:50.938Z,54.56
2023-04-01T16:32:43.936Z,54.80
2023-04-01T16:35:43.965Z,54.92
2023-04-01T16:38:18.964Z,55.09
2023-04-01T16:40:54.498Z,55.03
2023-04-01T16:43:30.283Z,55.17
2023-04-01T16:46:16.813Z,55.32
2023-04-01T16:48:59.852Z,55.40
2023-04-01T16:51:34.848Z,54.88
2023-04-01T16:54:08.700Z,55.05
2023-04-01T16:56:44.212Z,54.94
2023-04-01T16:59:23.945Z,55.11
2023-04-01T17:01:55.963Z,55.03
2023-04-01T17:04:35.750Z,55.33
2023-04-01T17:07:12.852Z,55.14
2023-04-01T17:10:08.464Z,54.95
2023-04-01T17:12:42.339Z,54.87
2023-04-01T17:15:23.600Z,55.10
2023-04-01T17:17:57.129Z,55.15
2023-04-01T17:20:36.182Z,55.57
2023-04-01T17:23:15.127Z,55.49
2023-04-01T17:25:57.211Z,55.13
2023-04-01T17:28:38.379Z,55.37
2023-04-01T17:31:14.154Z,55.45
2023-04-01T17:33:53.711Z,55.61
2023-04-01T17:36:34.786Z,55.72
2023-04-01T17:39:16.314Z,55.20
2023-04-01T17:41:51.390Z,55.05
2023-04-01T17:44:33.617Z,55.62
2023-04-01T17:47:16.186Z,55.27
2023-04-01T17:49:51.454Z,55.04
2023-04-01T17:52:27.993Z,55.17
2023-04-01T17:55:06.015Z,55.38
2023-04-01T17:57:47.957Z,55.47
2023-04-01T18:00:23.044Z,55.34
2023-04-01T18:03:03.456Z,55.25
2023-04-01T18:05:45.354Z,55.55
2023-04-01T18:08:34.408Z,55.60
2023-04-01T18:11:13.001Z,55.01
2023-04-01T18:14:21.013Z,55.01
2023-04-01T18:17:08.400Z,55.04
2023-04-01T18:19:47.050Z,55.00
2023-04-01T18:22:23.110Z,55.35
2023-04-01T18:24:59.130Z,55.06
2023-04-01T18:27:33.887Z,54.95
2023-04-01T18:30:09.440Z,55.17
2023-04-01T18:32:45.876Z,55.27
2023-04-01T18:35:29.482Z,55.65
2023-04-01T18:38:02.896Z,55.65
2023-04-01T18:40:36.542Z,55.22
2023-04-01T18:43:14.774Z,55.49
2023-04-01T18:45:48.038Z,55.41
2023-04-01T18:48:37.041Z,55.04
2023-04-01T18:51:15.043Z,55.24
2023-04-01T18:53:48.774Z,55.44
2023-04-01T18:56:28.485Z,55.44
2023-04-01T18:59:04.006Z,55.54
2023-04-01T19:01:41.473Z,55.54
2023-04-01T19:04:25.665Z,55.52
2023-04-01T19:06:57.948Z,54.93
2023-04-01T19:09:28.454Z,55.45
2023-04-01T19:12:24.704Z,55.85
2023-04-01T19:15:18.670Z,55.27
2023-04-01T19:18:06.614Z,55.34
2023-04-01T19:20:39.306Z,55.13
2023-04-01T19:23:29.077Z,55.36
2023-04-01T19:25:57.780Z,55.13
2023-04-01T19:28:37.678Z,55.08
2023-04-01T19:31:15.955Z,55.58
2023-04-01T19:33:54.719Z,55.46
2023-04-01T19:36:30.334Z,55.47
2023-04-01T19:39:11.980Z,55.51
2023-04-01T19:41:46.528Z,55.49
2023-04-01T19:44:24.802Z,55.57
2023-04-01T19:46:58.940Z,55.03
2023-04-01T19:49:38.437Z,55.17
2023-04-01T19:52:12.401Z,55.16
2023-04-01T19:54:48.245Z,55.78
2023-04-01T19:57:24.080Z,55.75
2023-04-01T19:59:58.417Z,55.20
2023-04-01T20:02:39.346Z,55.80
2023-04-01T20:05:27.280Z,55.26
2023-04-01T20:08:02.196Z,55.50
2023-04-01T20:10:40.696Z,55.63
2023-04-01T20:13:22.433Z,55.18
2023-04-01T20:16:02.255Z,55.38
2023-04-01T20:18:39.696Z,55.27
2023-04-01T20:21:19.070Z,54.92
2023-04-01T20:23:52.788Z,54.95
2023-04-01T20:26:25.234Z,55.54
2023-04-01T20:29:16.718Z,55.85
2023-04-01T20:31:46.402Z,55.37
2023-04-01T20:34:48.031Z,55.81
2023-04-01T20:37:30.785Z,55.45
2023-04-01T20:40:37.833Z,55.63
2023-04-01T20:43:36.159Z,56.05
2023-04-01T20:46:17.837Z,55.75
2023-04-01T20:49:07.754Z,55.63
2023-04-01T20:51:40.991Z,55.29
2023-04-01T20:54:24.676Z,55.95
2023-04-01T20:57:03.778Z,55.96
2023-04-01T20:59:47.152Z,55.84
2023-04-01T21:02:29.400Z,56.19
2023-04-01T21:05:29.823Z,56.10
2023-04-01T21:08:03.784Z,55.77
2023-04-01T21:10:43.373Z,56.07
2023-04-01T21:13:27.611Z,56.45
2023-04-01T21:16:16.575Z,56.62
2023-04-01T21:18:58.826Z,55.99
2023-04-01T21:21:47.049Z,56.23
2023-04-01T21:24:44.664Z,56.39
2023-04-01T21:27:23.238Z,56.09
2023-04-01T21:30:05.708Z,56.38
2023-04-01T21:32:57.635Z,56.33
2023-04-01T21:35:38.155Z,55.73
2023-04-01T21:38:33.823Z,55.83
2023-04-01T21:41:21.876Z,55.45
2023-04-01T21:44:32.946Z,55.96
2023-04-01T21:47:22.019Z,55.93
2023-04-01T21:50:16.366Z,55.32
2023-04-01T21:53:11.719Z,55.82
2023-04-01T21:56:20.520Z,55.62
2023-04-01T21:59:13.599Z,55.71
2023-04-01T22:02:05.658Z,56.07
2023-04-01T22:04:55.665Z,55.91
2023-04-01T22:07:30.926Z,55.23
2023-04-01T22:10:07.579Z,55.49
2023-04-01T22:12:39.491Z,55.22
2023-04-01T22:15:20.406Z,55.64
2023-04-01T22:17:56.000Z,55.19
2023-04-01T22:20:30.347Z,55.44
2023-04-01T22:23:09.454Z,54.91
2023-04-01T22:25:44.373Z,54.70
2023-04-01T22:28:18.826Z,54.69
2023-04-01T22:30:52.631Z,54.60
2023-04-01T22:33:32.224Z,55.04
2023-04-01T22:36:08.933Z,54.88
2023-04-01T22:38:56.993Z,54.67
2023-04-01T22:41:37.013Z,54.45
2023-04-01T22:44:05.046Z,54.81
2023-04-01T22:46:55.214Z,54.21
2023-04-01T22:49:28.930Z,54.11
2023-04-01T22:52:03.072Z,54.42
2023-04-01T22:54:36.796Z,54.50
2023-04-01T22:57:10.598Z,53.91
2023-04-01T22:59:46.953Z,54.17
2023-04-01T23:02:18.908Z,54.14
2023-04-01T23:04:53.239Z,53.85
2023-04-01T23:07:50.967Z,53.56
2023-04-01T23:10:27.195Z,54.16
2023-04-01T23:13:00.192Z,54.09
2023-04-01T23:15:30.135Z,54.04
2023-04-01T23:18:08.595Z,53.37
2023-04-01T23:20:59.339Z,53.84
2023-04-01T23:23:37.379Z,53.66
2023-04-01T23:26:12.408Z,53.50
2023-04-01T23:28:47.421Z,53.59
2023-04-01T23:31:37.353Z,54.06
2023-04-01T23:34:18.676Z,54.04
2023-04-01T23:36:49.663Z,54.03
2023-04-01T23:39:25.002Z,53.99
2023-04-01T23:41:56.974Z,53.47
2023-04-01T23:44:27.734Z,54.00
2023-04-01T23:46:56.687Z,53.80
2023-04-01T23:49:30.848Z,53.40
2023-04-01T23:52:01.634Z,53.30
2023-04-01T23:54:33.787Z,53.30
2023-04-01T23:57:08.777Z,53.65
2023-04-01T23:59:38.429Z,53.74
